Time,TemperatureF,DewpointF,PressureIn,WindDirection,WindDirectionDegrees,WindSpeedMPH,WindSpeedGustMPH,Humidity,HourlyPrecipIn,Conditions,Clouds,dailyrainin,SoftwareType,DateUTC
2013-06-24 00:00:00,53.4,41.1,30.18,NE,45,0.0,3.0,63,0.00,RA,FEW,0.00,WeatherDisplay:10.37,2013-06-23 23:00:00,
2013-06-24 00:30:00,53.4,41.1,30.18,NE,45,0.0,3.0,63,0.00,,FEW,0.00,WeatherDisplay:10.37,2013-06-23 23:30:00,
2013-06-24 01:00:00,53.4,41.1,30.18,NE,45,0.0,3.0,63,0.00,,FEW,0.00,WeatherDisplay:10.37,2013-06-24 00:00:00,
2013-06-24 01:30:00,53.4,41.1,30.18,NE,45,0.0,3.0,63,0.00,,FEW,0.00,WeatherDisplay:10.37,2013-06-24 00:30:00,
2013-06-24 02:00:00,50.7,41.7,30.22,NE,45,0.0,3.0,71,0.00,,FEW,0.00,WeatherDisplay:10.37,2013-06-24 01:00:00,
2013-06-24 02:30:00,50.9,42.2,30.22,NE,45,0.0,1.0,72,0.00,,FEW,0.00,WeatherDisplay:10.37,2013-06-24 01:30:00,
2013-06-24 03:00:00,51.0,42.3,30.23,NE,45,0.0,6.0,72,0.00,,FEW,0.00,WeatherDisplay:10.37,2013-06-24 02:00:00,
2013-06-24 03:30:00,51.1,42.4,30.23,NE,45,0.0,2.0,72,0.00,,FEW,0.00,WeatherDisplay:10.37,2013-06-24 02:30:00,
2013-06-24 04:00:00,51.1,42.7,30.24,NE,45,0.0,2.0,73,0.00,,FEW,0.00,WeatherDisplay:10.37,2013-06-24 03:00:00,
2013-06-24 04:30:00,50.7,42.4,30.24,NE,45,0.0,2.0,73,0.00,,FEW,0.00,WeatherDisplay:10.37,2013-06-24 03:30:00,
2013-06-24 05:00:00,50.2,42.2,30.25,NE,45,0.0,1.0,74,0.00,,FEW,0.00,WeatherDisplay:10.37,2013-06-24 04:00:00,
2013-06-24 05:30:00,49.8,42.2,30.26,NE,45,0.0,0.0,75,0.00,,FEW,0.00,WeatherDisplay:10.37,2013-06-24 04:30:00,
2013-06-24 06:00:00,49.6,42.0,30.26,NE,45,0.0,0.0,75,0.00,,FEW,0.00,WeatherDisplay:10.37,2013-06-24 05:00:00,
2013-06-24 06:30:00,50.4,43.1,30.26,NE,45,0.0,0.0,76,0.00,,FEW,0.00,WeatherDisplay:10.37,2013-06-24 05:30:00,
2013-06-24 07:00:00,50.9,43.6,30.26,NE,45,0.0,3.0,76,0.00,,FEW,0.00,WeatherDisplay:10.37,2013-06-24 06:00:00,
2013-06-24 07:30:00,51.8,44.5,30.26,NE,45,0.0,0.0,76,0.00,,FEW,0.00,WeatherDisplay:10.37,2013-06-24 06:30:00,
2013-06-24 08:00:00,53.8,45.7,30.27,NE,45,0.0,5.0,74,0.00,,FEW,0.00,WeatherDisplay:10.37,2013-06-24 07:00:00,
2013-06-24 08:30:00,55.6,45.9,30.27,NE,45,0.0,12.0,70,0.00,,FEW,0.00,WeatherDisplay:10.37,2013-06-24 07:30:00,
2013-06-24 09:00:00,57.9,45.8,30.27,NE,45,0.0,12.0,64,0.00,,FEW,0.00,WeatherDisplay:10.37,2013-06-24 08:00:00,
2013-06-24 09:30:00,59.0,44.2,30.27,NE,45,0.0,5.0,58,0.00,,FEW,0.00,WeatherDisplay:10.37,2013-06-24 08:30:00,
2013-06-24 10:00:00,59.7,44.0,30.28,NE,45,0.0,8.0,56,0.00,,FEW,0.00,WeatherDisplay:10.37,2013-06-24 09:00:00,
2013-06-24 10:30:00,60.9,44.1,30.29,NE,45,0.0,2.0,54,0.00,,FEW,0.00,WeatherDisplay:10.37,2013-06-24 09:30:00,
2013-06-24 11:00:00,60.3,41.0,30.28,NE,45,0.0,8.0,49,0.00,,FEW,0.00,WeatherDisplay:10.37,2013-06-24 10:00:00,
2013-06-24 11:30:00,61.2,40.8,30.29,NE,45,0.0,6.0,47,0.00,,FEW,0.00,WeatherDisplay:10.37,2013-06-24 10:30:00,
2013-06-24 12:00:00,59.5,40.3,30.30,NE,45,0.0,2.0,49,0.00,,FEW,0.00,WeatherDisplay:10.37,2013-06-24 11:00:00,
2013-06-24 14:00:00,62.6,40.9,30.30,NE,45,0.0,1.0,45,0.00,,FEW,0.00,WeatherDisplay:10.37,2013-06-24 13:00:00,
2013-06-24 14:30:00,62.8,41.1,30.30,NE,45,0.0,0.0,45,0.00,,FEW,0.00,WeatherDisplay:10.37,2013-06-24 13:30:00,
2013-06-24 15:00:00,62.6,40.4,30.30,NE,45,0.0,2.0,44,0.00,,FEW,0.00,WeatherDisplay:10.37,2013-06-24 14:00:00,
2013-06-24 15:30:00,63.3,39.8,30.30,NE,45,1.0,7.0,42,0.00,,FEW,0.00,WeatherDisplay:10.37,2013-06-24 14:30:00,
2013-06-24 16:00:00,63.6,38.2,30.30,NE,45,0.0,7.0,39,0.00,,FEW,0.00,WeatherDisplay:10.37,2013-06-24 15:00:00,
2013-06-24 17:00:00,62.8,43.3,30.31,NE,45,0.0,11.0,49,0.00,,FEW,0.00,WeatherDisplay:10.37,2013-06-24 16:00:00,
2013-06-24 17:30:00,60.8,43.1,30.31,NE,45,0.0,1.0,52,0.00,,FEW,0.00,WeatherDisplay:10.37,2013-06-24 16:30:00,
2013-06-24 18:00:00,61.7,45.4,30.31,NE,45,0.0,2.0,55,0.00,,FEW,0.00,WeatherDisplay:10.37,2013-06-24 17:00:00,
2013-06-24 18:30:00,62.2,45.4,30.31,NE,45,0.0,0.0,54,0.00,,FEW,0.00,WeatherDisplay:10.37,2013-06-24 17:30:00,
2013-06-24 19:00:00,60.6,44.8,30.31,NE,45,0.0,0.0,56,0.00,,FEW,0.00,WeatherDisplay:10.37,2013-06-24 18:00:00,
2013-06-24 20:00:00,59.4,45.5,30.32,NE,45,0.0,0.0,60,0.00,,FEW,0.00,WeatherDisplay:10.37,2013-06-24 19:00:00,
2013-06-24 20:30:00,58.8,45.0,30.32,NE,45,0.0,0.0,60,0.00,,FEW,0.00,WeatherDisplay:10.37,2013-06-24 19:30:00,
2013-06-24 21:30:00,57.6,42.4,30.33,NE,45,0.0,0.0,57,0.00,,FEW,0.00,WeatherDisplay:10.37,2013-06-24 20:30:00,
2013-06-24 22:00:00,57.0,42.4,30.34,NE,45,0.0,0.0,58,0.00,,FEW,0.00,WeatherDisplay:10.37,2013-06-24 21:00:00,
2013-06-24 22:30:00,56.3,42.6,30.34,NE,45,0.0,0.0,60,0.00,,FEW,0.00,WeatherDisplay:10.37,2013-06-24 21:30:00,
2013-06-24 23:00:00,54.8,41.6,30.34,NE,45,0.0,0.0,61,0.00,,FEW,0.00,WeatherDisplay:10.37,2013-06-24 22:00:00,
2013-06-24 23:30:00,53.9,42.0,30.34,NE,45,0.0,0.0,64,0.00,,FEW,0.00,WeatherDisplay:10.37,2013-06-24 22:30:00,